Time;durP1;ratioP1;P1;durP2;ratioP2;P2;SDS_P1;SDS_P2;PMS_P1;PMS_P2;Temp;Humidity;BMP_temperature;BMP_pressure;BME280_temperature;BME280_humidity;BME280_pressure;Samples;Min_cycle;Max_cycle;Signal;HPM_P1;HPM_P2
2022/12/03 00:01:00;;;;;;;30.97;19.17;;;3.40;99.90;;;;;;5092565;28;20048;-76
2022/12/03 00:03:27;;;;;;;32.80;19.23;;;3.40;99.90;;;;;;5093200;28;20043;-76
2022/12/03 00:05:53;;;;;;;31.70;18.95;;;3.50;99.90;;;;;;5093397;28;20499;-76
2022/12/03 00:08:18;;;;;;;30.37;18.40;;;3.50;99.90;;;;;;5094091;28;20055;-76
2022/12/03 00:10:44;;;;;;;32.10;19.87;;;3.40;99.90;;;;;;5094004;28;20430;-75
2022/12/03 00:13:10;;;;;;;34.63;19.73;;;3.50;99.90;;;;;;5093497;28;20055;-75
2022/12/03 00:15:36;;;;;;;29.13;17.93;;;3.50;99.90;;;;;;5093866;28;20051;-75
2022/12/03 00:18:01;;;;;;;30.70;17.97;;;3.50;99.90;;;;;;5092582;28;20048;-75
2022/12/03 00:20:27;;;;;;;28.30;17.33;;;3.50;99.90;;;;;;5094067;28;20048;-75
2022/12/03 00:22:53;;;;;;;27.10;17.50;;;3.50;99.90;;;;;;5092581;28;20047;-76
2022/12/03 00:25:18;;;;;;;24.37;16.10;;;3.70;99.90;;;;;;5093667;28;20127;-76
2022/12/03 00:27:44;;;;;;;23.87;15.53;;;3.60;99.90;;;;;;5092857;28;20042;-76
2022/12/03 00:30:10;;;;;;;24.37;15.00;;;3.70;99.90;;;;;;5092701;28;20589;-76
2022/12/03 00:32:36;;;;;;;24.20;15.60;;;3.70;99.90;;;;;;5093450;28;20468;-76
2022/12/03 00:35:02;;;;;;;24.53;15.53;;;3.80;99.90;;;;;;5093216;28;20135;-76
2022/12/03 00:37:27;;;;;;;24.73;14.73;;;3.80;99.90;;;;;;5093481;28;20079;-76
2022/12/03 00:39:53;;;;;;;22.27;13.80;;;3.80;99.90;;;;;;5093229;28;20058;-79
2022/12/03 00:42:19;;;;;;;21.63;12.97;;;3.90;99.90;;;;;;5093445;28;20503;-75
2022/12/03 00:44:44;;;;;;;19.53;12.80;;;3.90;99.90;;;;;;5093576;28;20048;-75
2022/12/03 00:47:11;;;;;;;19.53;12.80;;;4.00;99.90;;;;;;5091864;28;20127;-75
2022/12/03 00:49:37;;;;;;;17.10;11.63;;;4.10;99.90;;;;;;5093553;28;20052;-75
2022/12/03 00:52:02;;;;;;;16.60;11.23;;;4.10;99.90;;;;;;5092778;28;20063;-76
2022/12/03 00:54:28;;;;;;;16.20;10.10;;;4.20;99.90;;;;;;5093329;28;20052;-75
2022/12/03 00:56:54;;;;;;;17.40;10.87;;;4.40;99.90;;;;;;5093258;28;20062;-76
2022/12/03 00:59:20;;;;;;;20.67;11.87;;;4.40;99.90;;;;;;5092959;28;20040;-75
2022/12/03 01:01:45;;;;;;;18.13;11.50;;;4.40;99.90;;;;;;5092294;28;20125;-76
2022/12/03 01:04:11;;;;;;;16.53;11.20;;;4.50;99.90;;;;;;5074857;28;20140;-76
2022/12/03 01:06:37;;;;;;;17.00;11.27;;;4.50;99.90;;;;;;5093218;28;20040;-75
2022/12/03 01:09:03;;;;;;;15.10;10.43;;;4.60;99.90;;;;;;5093208;28;20043;-76
2022/12/03 01:11:37;;;;;;;18.37;12.20;;;4.60;99.90;;;;;;5091833;28;20040;-76
2022/12/03 01:14:04;;;;;;;14.98;10.48;;;4.60;99.90;;;;;;5091999;28;20044;-76
2022/12/03 01:16:31;;;;;;;15.90;10.68;;;4.70;99.90;;;;;;5093057;28;20127;-75
2022/12/03 01:18:57;;;;;;;17.55;10.95;;;4.70;99.90;;;;;;5093021;28;20044;-75
2022/12/03 01:21:22;;;;;;;17.57;11.23;;;4.70;99.90;;;;;;5093073;28;20422;-76
2022/12/03 01:23:48;;;;;;;17.40;10.70;;;4.70;99.90;;;;;;5091793;28;20040;-76
2022/12/03 01:26:14;;;;;;;15.87;10.57;;;4.70;99.90;;;;;;5091793;28;20040;-76
2022/12/03 01:28:40;;;;;;;16.33;10.37;;;4.80;99.90;;;;;;5092120;28;20459;-75
2022/12/03 01:33:52;;;;;;;19.75;10.50;;;4.70;99.90;;;;;;5091951;28;20052;-75
2022/12/03 01:36:17;;;;;;;17.30;11.47;;;4.70;99.90;;;;;;5091665;28;20372;-76
2022/12/03 01:38:43;;;;;;;18.50;11.90;;;4.70;99.90;;;;;;5092967;28;20040;-75
2022/12/03 01:41:09;;;;;;;14.17;9.70;;;4.70;99.90;;;;;;5092928;28;20377;-75
2022/12/03 01:43:35;;;;;;;16.67;10.57;;;4.70;99.90;;;;;;5092900;28;20044;-75
2022/12/03 01:46:01;;;;;;;14.10;10.32;;;4.60;99.90;;;;;;5092780;28;20407;-75
2022/12/03 01:48:31;;;;;;;16.03;10.80;;;4.60;99.90;;;;;;5091520;28;20048;-75
2022/12/03 01:50:56;;;;;;;17.13;11.73;;;4.50;99.90;;;;;;5092827;28;20044;-75
2022/12/03 01:53:22;;;;;;;18.33;11.50;;;4.70;99.90;;;;;;5091241;28;20920;-75
2022/12/03 01:55:48;;;;;;;17.23;11.03;;;4.70;99.90;;;;;;5091678;28;20055;-75
2022/12/03 01:58:15;;;;;;;17.47;10.70;;;4.70;99.90;;;;;;5092402;28;20052;-75
2022/12/03 02:00:41;;;;;;;17.23;11.13;;;4.80;99.90;;;;;;5092600;28;20040;-75
2022/12/03 02:03:14;;;;;;;16.50;11.67;;;4.90;99.90;;;;;;5092350;28;20492;-76
2022/12/03 02:05:40;;;;;;;17.42;11.57;;;4.80;99.90;;;;;;5094398;28;20055;-75
2022/12/03 02:08:32;;;;;;;18.33;11.03;;;4.80;99.90;;;;;;5094994;28;20392;-76
2022/12/03 02:11:03;;;;;;;17.95;11.05;;;4.80;99.90;;;;;;5096178;28;20494;-75
2022/12/03 02:13:30;;;;;;;19.20;11.18;;;4.90;99.90;;;;;;5096322;28;20097;-76
2022/12/03 02:15:56;;;;;;;17.45;11.73;;;4.80;99.90;;;;;;5095172;28;20113;-75
2022/12/03 02:18:22;;;;;;;15.88;11.45;;;4.80;99.90;;;;;;5095871;28;20059;-76
2022/12/03 02:21:22;;;;;;;18.07;12.13;;;4.80;99.90;;;;;;5096078;28;20050;-76
2022/12/03 02:23:57;;;;;;;18.05;11.88;;;4.80;99.90;;;;;;5094314;28;20106;-75
2022/12/03 02:26:22;;;;;;;19.83;12.05;;;4.90;99.90;;;;;;5095649;28;20044;-76
2022/12/03 02:28:48;;;;;;;17.03;12.43;;;4.80;99.90;;;;;;5095900;28;20050;-76
2022/12/03 02:31:14;;;;;;;17.97;12.73;;;4.80;99.90;;;;;;5095561;28;20044;-75
2022/12/03 02:33:40;;;;;;;18.58;12.23;;;4.80;99.90;;;;;;5096056;28;20296;-75
2022/12/03 02:36:06;;;;;;;18.63;12.77;;;4.80;99.90;;;;;;5095749;28;20135;-75
2022/12/03 02:38:33;;;;;;;19.80;11.20;;;4.80;99.90;;;;;;5095456;28;20051;-75
2022/12/03 02:41:03;;;;;;;19.83;13.40;;;4.80;99.90;;;;;;5095678;28;20045;-75
2022/12/03 02:43:29;;;;;;;19.75;14.35;;;4.70;99.90;;;;;;5094477;28;20052;-75
2022/12/03 02:45:58;;;;;;;20.15;13.73;;;4.70;99.90;;;;;;5095547;28;20503;-75
2022/12/03 02:48:36;;;;;;;21.33;14.55;;;4.70;99.90;;;;;;5095323;28;20051;-75
2022/12/03 02:51:05;;;;;;;19.20;13.52;;;4.70;99.90;;;;;;5095577;28;20116;-76
2022/12/03 02:53:52;;;;;;;19.13;14.32;;;4.70;99.90;;;;;;5094873;28;20105;-75
2022/12/03 02:56:21;;;;;;;21.38;13.93;;;4.70;99.90;;;;;;5095257;28;20404;-76
2022/12/03 02:58:51;;;;;;;21.85;13.70;;;4.70;99.90;;;;;;5094385;28;20403;-75
2022/12/03 03:01:16;;;;;;;22.48;15.25;;;4.70;99.90;;;;;;5093828;28;20036;-76
2022/12/03 03:03:45;;;;;;;20.00;13.43;;;4.60;99.90;;;;;;5095196;28;20054;-76
2022/12/03 03:06:11;;;;;;;22.23;14.80;;;4.60;99.90;;;;;;5094245;28;20036;-76
2022/12/03 03:08:38;;;;;;;22.08;14.70;;;4.60;99.90;;;;;;5095121;28;20544;-76
2022/12/03 03:11:04;;;;;;;20.45;13.90;;;4.70;99.90;;;;;;5093937;28;20040;-76
2022/12/03 03:13:31;;;;;;;21.83;14.47;;;4.70;99.90;;;;;;5094706;28;20512;-76
2022/12/03 03:15:57;;;;;;;22.20;14.30;;;4.70;99.90;;;;;;5094836;28;20044;-75
2022/12/03 03:18:23;;;;;;;21.15;14.77;;;4.60;99.90;;;;;;5093875;28;20051;-75
2022/12/03 03:20:49;;;;;;;20.70;13.90;;;4.60;99.90;;;;;;5094940;28;20105;-75
2022/12/03 03:23:20;;;;;;;23.17;15.05;;;4.70;99.90;;;;;;5094600;28;20048;-76
2022/12/03 03:25:53;;;;;;;23.02;14.73;;;4.70;99.90;;;;;;5093834;28;20131;-75
2022/12/03 03:28:19;;;;;;;20.27;14.55;;;4.60;99.90;;;;;;5094226;28;20488;-75
2022/12/03 03:30:45;;;;;;;20.73;14.20;;;4.60;99.90;;;;;;5094939;28;20055;-75
2022/12/03 03:33:13;;;;;;;22.92;14.65;;;4.50;99.90;;;;;;5094280;28;20519;-75
2022/12/03 03:35:39;;;;;;;22.50;15.02;;;4.50;99.90;;;;;;5093179;28;20048;-75
2022/12/03 03:38:06;;;;;;;22.58;15.30;;;4.50;99.90;;;;;;5094312;28;20500;-75
2022/12/03 03:40:32;;;;;;;20.98;14.25;;;4.50;99.90;;;;;;5076444;28;20083;-75
2022/12/03 03:42:59;;;;;;;23.98;15.05;;;4.60;99.90;;;;;;5094444;28;20040;-75
2022/12/03 03:45:25;;;;;;;21.55;14.35;;;4.60;99.90;;;;;;5094247;28;20390;-75
2022/12/03 03:47:51;;;;;;;19.83;14.53;;;4.60;99.90;;;;;;5094421;28;20055;-75
2022/12/03 03:50:17;;;;;;;20.48;14.38;;;4.50;99.90;;;;;;5094093;28;20419;-78
2022/12/03 03:52:44;;;;;;;20.87;14.43;;;4.50;99.90;;;;;;5094088;28;20142;-75
2022/12/03 03:55:11;;;;;;;21.13;14.82;;;4.50;99.90;;;;;;5093171;28;20156;-75
2022/12/03 03:57:38;;;;;;;21.40;14.35;;;4.50;99.90;;;;;;5093942;28;20051;-75
2022/12/03 04:00:07;;;;;;;20.02;13.38;;;4.50;99.90;;;;;;5093109;28;20051;-75
2022/12/03 04:02:33;;;;;;;19.85;12.93;;;4.40;99.90;;;;;;5075916;28;20119;-75
2022/12/03 04:04:59;;;;;;;21.02;13.93;;;4.50;99.90;;;;;;5094312;28;20141;-75
2022/12/03 04:07:25;;;;;;;20.58;13.88;;;4.60;99.90;;;;;;5092908;28;20047;-75
2022/12/03 04:09:50;;;;;;;18.20;13.20;;;4.50;99.90;;;;;;5094034;28;20133;-75
2022/12/03 04:15:00;;;;;;;19.08;13.02;;;4.50;99.90;;;;;;5092995;28;20047;-75
2022/12/03 04:17:26;;;;;;;22.77;14.43;;;4.40;99.90;;;;;;5075534;28;20476;-74
2022/12/03 04:19:52;;;;;;;20.80;14.27;;;4.50;99.90;;;;;;5092875;28;20388;-74
2022/12/03 04:30:31;;;;;;;21.77;15.30;;;4.40;99.90;;;;;;5093373;28;20056;-75
2022/12/03 04:35:43;;;;;;;21.00;13.57;;;4.40;99.90;;;;;;5092291;28;20048;-75
2022/12/03 04:38:11;;;;;;;21.60;14.68;;;4.30;99.90;;;;;;5093498;28;20083;-75
2022/12/03 04:43:21;;;;;;;21.15;14.65;;;4.40;99.90;;;;;;5092670;28;20147;-75
2022/12/03 04:45:47;;;;;;;21.43;14.17;;;4.40;99.90;;;;;;5093407;28;20135;-75
2022/12/03 04:48:13;;;;;;;21.37;14.07;;;4.40;99.90;;;;;;5093503;28;20044;-74
2022/12/03 04:50:38;;;;;;;21.37;14.73;;;4.40;99.90;;;;;;5093130;28;20044;-74
2022/12/03 04:53:04;;;;;;;21.93;14.50;;;4.30;99.90;;;;;;5093150;28;20052;-75
2022/12/03 04:55:30;;;;;;;19.90;13.50;;;4.30;99.90;;;;;;5091765;28;20047;-75
2022/12/03 04:57:56;;;;;;;23.00;14.60;;;4.30;99.90;;;;;;5093444;28;20039;-74
2022/12/03 05:00:21;;;;;;;24.53;14.93;;;4.30;99.90;;;;;;5091887;28;20048;-74
2022/12/03 05:02:47;;;;;;;24.00;14.50;;;4.30;99.90;;;;;;5092850;28;20040;-74
2022/12/03 05:05:13;;;;;;;20.83;13.97;;;4.30;99.90;;;;;;5093273;28;20044;-75
2022/12/03 05:07:38;;;;;;;22.43;15.37;;;4.30;99.90;;;;;;5091738;28;20488;-75
2022/12/03 05:10:05;;;;;;;23.03;14.87;;;4.10;99.90;;;;;;5075309;28;20086;-75
2022/12/03 05:12:31;;;;;;;20.55;14.18;;;4.20;99.90;;;;;;5092351;28;20512;-75
2022/12/03 05:14:56;;;;;;;23.20;14.50;;;4.20;99.90;;;;;;5092361;28;20052;-75
2022/12/03 05:17:22;;;;;;;21.27;15.00;;;4.30;99.90;;;;;;5091686;28;20052;-75
2022/12/03 05:22:32;;;;;;;23.35;15.00;;;4.20;99.90;;;;;;5092809;28;20089;-75
2022/12/03 05:24:58;;;;;;;22.13;14.77;;;4.20;99.90;;;;;;5092896;28;20048;-75
2022/12/03 05:27:23;;;;;;;21.57;14.77;;;4.10;99.90;;;;;;5092036;28;20043;-75
2022/12/03 05:29:50;;;;;;;22.02;14.20;;;4.10;99.90;;;;;;5092651;28;20090;-75
2022/12/03 05:32:16;;;;;;;23.65;15.60;;;4.10;99.90;;;;;;5075161;28;20444;-75
2022/12/03 05:34:42;;;;;;;23.27;15.17;;;4.10;99.90;;;;;;5092944;28;20091;-75
2022/12/03 05:37:07;;;;;;;23.10;16.10;;;4.10;99.90;;;;;;5092196;28;20055;-75
2022/12/03 05:39:33;;;;;;;23.40;15.70;;;4.00;99.90;;;;;;5092575;28;20055;-75
2022/12/03 05:44:43;;;;;;;25.25;15.50;;;4.10;99.90;;;;;;5096140;28;20399;-75
2022/12/03 05:47:09;;;;;;;23.57;15.53;;;4.20;99.90;;;;;;5096806;28;20062;-75
2022/12/03 05:49:34;;;;;;;23.77;14.80;;;4.10;99.90;;;;;;5096427;28;20423;-75
2022/12/03 05:52:00;;;;;;;23.63;15.33;;;4.10;99.90;;;;;;5078326;28;20047;-75
2022/12/03 05:54:26;;;;;;;24.83;16.00;;;4.10;99.90;;;;;;5095749;28;20097;-75
2022/12/03 05:56:51;;;;;;;23.80;15.23;;;4.20;99.90;;;;;;5095352;28;20078;-75
2022/12/03 05:59:17;;;;;;;25.47;16.67;;;4.10;99.90;;;;;;5096764;28;20048;-75
2022/12/03 06:01:43;;;;;;;24.40;14.57;;;4.20;99.90;;;;;;5094931;28;20048;-75
2022/12/03 06:04:08;;;;;;;23.37;14.70;;;4.20;99.90;;;;;;5096442;28;20040;-75
2022/12/03 06:06:34;;;;;;;24.57;15.03;;;4.30;99.90;;;;;;5096008;28;20125;-78
2022/12/03 06:09:00;;;;;;;24.00;15.50;;;4.20;99.90;;;;;;5096499;28;20051;-75
2022/12/03 06:11:25;;;;;;;20.53;14.50;;;4.10;99.90;;;;;;5096291;28;20079;-75
2022/12/03 06:13:51;;;;;;;24.73;14.43;;;4.20;99.90;;;;;;5096027;28;20100;-75
2022/12/03 06:16:17;;;;;;;22.07;14.57;;;4.20;99.90;;;;;;5096251;28;20442;-75
2022/12/03 06:18:42;;;;;;;22.93;14.53;;;4.20;99.90;;;;;;5095020;28;20077;-75
2022/12/03 06:21:08;;;;;;;22.07;14.97;;;4.20;99.90;;;;;;5095794;28;20115;-75
2022/12/03 06:23:34;;;;;;;21.80;14.27;;;4.10;99.90;;;;;;5095031;28;20047;-75
2022/12/03 06:26:00;;;;;;;23.65;14.45;;;4.20;99.90;;;;;;5094850;28;20052;-74
2022/12/03 06:28:26;;;;;;;22.90;14.83;;;4.20;99.90;;;;;;5094915;28;20373;-75
2022/12/03 06:30:51;;;;;;;28.83;16.97;;;4.20;99.90;;;;;;5095585;28;20051;-75
2022/12/03 06:33:17;;;;;;;23.33;14.33;;;4.10;99.90;;;;;;5095797;28;20126;-75
2022/12/03 06:35:42;;;;;;;22.53;15.10;;;4.10;99.90;;;;;;5094277;28;20373;-75
2022/12/03 06:38:08;;;;;;;24.23;14.73;;;4.20;99.90;;;;;;5094853;28;20052;-75
2022/12/03 06:40:34;;;;;;;20.70;13.20;;;4.10;99.90;;;;;;5095685;28;20051;-75
2022/12/03 06:42:59;;;;;;;22.77;13.80;;;4.00;99.90;;;;;;5095491;28;20046;-74
2022/12/03 06:45:25;;;;;;;20.30;13.60;;;4.20;99.90;;;;;;5095763;28;20500;-74
2022/12/03 06:47:51;;;;;;;25.00;16.17;;;4.20;99.90;;;;;;5094166;28;20134;-75
2022/12/03 06:50:32;;;;;;;23.52;14.75;;;4.10;99.90;;;;;;5072279;28;20055;-75
2022/12/03 06:52:57;;;;;;;21.67;14.57;;;4.00;99.90;;;;;;5094663;28;20071;-75
2022/12/03 06:55:23;;;;;;;22.63;14.63;;;4.10;99.90;;;;;;5094578;28;20055;-75
2022/12/03 06:57:49;;;;;;;22.57;15.33;;;4.10;99.90;;;;;;5095178;28;20087;-75
2022/12/03 07:00:15;;;;;;;20.80;13.70;;;4.00;99.90;;;;;;5095290;28;20131;-75
2022/12/03 07:02:43;;;;;;;24.83;15.10;;;4.00;99.90;;;;;;5095305;28;20040;-75
2022/12/03 07:05:09;;;;;;;23.05;14.68;;;4.00;99.90;;;;;;5094092;28;20491;-75
2022/12/03 07:07:35;;;;;;;24.38;14.75;;;4.00;99.90;;;;;;5095186;28;20036;-75
2022/12/03 07:10:00;;;;;;;22.77;15.10;;;4.00;99.90;;;;;;5094907;28;20115;-75
2022/12/03 07:12:26;;;;;;;24.87;15.40;;;4.00;99.90;;;;;;5095071;28;20521;-75
2022/12/03 07:14:52;;;;;;;24.90;15.40;;;4.00;99.90;;;;;;5094498;28;20460;-75
2022/12/03 07:17:17;;;;;;;23.03;15.23;;;4.00;99.90;;;;;;5095057;28;20097;-75
2022/12/03 07:19:43;;;;;;;21.87;14.03;;;4.00;99.90;;;;;;5094030;28;20383;-75
2022/12/03 07:22:09;;;;;;;23.00;14.83;;;4.00;99.90;;;;;;5094778;28;20105;-75
2022/12/03 07:24:34;;;;;;;23.63;15.43;;;4.00;99.90;;;;;;5093918;28;20369;-75
2022/12/03 07:27:00;;;;;;;24.77;15.30;;;4.00;99.90;;;;;;5094591;28;20040;-74
2022/12/03 07:29:26;;;;;;;25.63;14.87;;;4.10;99.90;;;;;;5076722;28;20369;-75
2022/12/03 07:31:52;;;;;;;25.70;14.80;;;4.10;99.90;;;;;;5094376;28;20044;-75
2022/12/03 07:34:17;;;;;;;23.03;14.83;;;3.90;99.90;;;;;;5094721;28;20040;-75
2022/12/03 07:36:43;;;;;;;23.77;14.97;;;4.00;99.90;;;;;;5094605;28;20285;-75
2022/12/03 07:39:09;;;;;;;25.97;16.73;;;3.90;99.90;;;;;;5094285;28;20051;-75
2022/12/03 07:41:35;;;;;;;20.90;13.87;;;4.00;99.90;;;;;;5094576;28;20047;-75
2022/12/03 07:44:00;;;;;;;22.90;14.37;;;3.90;99.90;;;;;;5093308;28;20274;-76
2022/12/03 07:46:26;;;;;;;25.63;15.20;;;4.00;99.90;;;;;;5094188;28;20052;-75
2022/12/03 07:48:52;;;;;;;23.43;15.13;;;4.00;99.90;;;;;;5093223;28;20048;-75
2022/12/03 07:51:18;;;;;;;22.23;13.90;;;4.00;99.90;;;;;;5094303;28;20476;-74
2022/12/03 07:53:43;;;;;;;22.07;14.17;;;4.00;99.90;;;;;;5092793;28;20083;-75
2022/12/03 07:56:09;;;;;;;23.93;14.10;;;4.00;99.90;;;;;;5094059;28;20052;-75
2022/12/03 07:58:35;;;;;;;24.23;14.30;;;4.00;99.90;;;;;;5093016;28;20079;-75
2022/12/03 08:01:01;;;;;;;23.53;14.27;;;3.90;99.90;;;;;;5092831;28;20522;-74
2022/12/03 08:03:27;;;;;;;23.57;15.20;;;4.00;99.90;;;;;;5093595;28;20054;-74
2022/12/03 08:05:52;;;;;;;22.83;13.87;;;4.00;99.90;;;;;;5093812;28;20052;-74
2022/12/03 08:08:18;;;;;;;24.40;13.77;;;4.00;99.90;;;;;;5093363;28;20109;-74
2022/12/03 08:10:44;;;;;;;23.20;14.00;;;4.00;99.90;;;;;;5093965;28;20067;-74
2022/12/03 08:13:12;;;;;;;24.70;14.80;;;4.00;99.90;;;;;;5092422;28;20048;-77
2022/12/03 08:15:38;;;;;;;22.33;14.65;;;4.00;99.90;;;;;;5092924;28;20101;-76
2022/12/03 08:18:16;;;;;;;25.23;14.77;;;3.90;99.90;;;;;;5093685;28;20044;-76
2022/12/03 08:20:43;;;;;;;24.85;14.85;;;3.90;99.90;;;;;;5094094;28;20075;-76
2022/12/03 08:23:13;;;;;;;22.42;13.85;;;3.90;99.90;;;;;;5093508;28;20040;-77
2022/12/03 08:25:39;;;;;;;24.30;15.55;;;4.00;99.90;;;;;;5093049;28;20535;-77
2022/12/03 08:28:17;;;;;;;23.73;14.40;;;3.90;99.90;;;;;;5092437;28;20086;-77
2022/12/03 08:31:08;;;;;;;23.02;13.98;;;3.90;99.90;;;;;;5092687;28;20404;-77
2022/12/03 08:33:35;;;;;;;25.05;14.18;;;3.80;99.90;;;;;;5092716;28;20136;-77
2022/12/03 08:36:23;;;;;;;26.55;14.68;;;3.80;99.90;;;;;;5093387;28;20186;-78
2022/12/03 08:39:04;;;;;;;23.63;15.10;;;3.80;99.90;;;;;;5092748;28;20105;-77
2022/12/03 08:44:27;;;;;;;22.77;13.73;;;3.80;99.90;;;;;;5094840;28;20095;-77
2022/12/03 08:47:18;;;;;;;22.90;14.20;;;3.80;99.90;;;;;;5092444;28;20130;-77
2022/12/03 08:49:54;;;;;;;26.42;16.40;;;3.90;99.90;;;;;;5092447;28;20052;-77
2022/12/03 08:52:22;;;;;;;24.17;14.68;;;3.80;99.90;;;;;;5093038;28;20037;-77
2022/12/03 08:54:53;;;;;;;24.00;14.00;;;3.80;99.90;;;;;;5075813;28;20392;-76
2022/12/03 08:57:29;;;;;;;24.17;15.20;;;3.80;99.90;;;;;;5093075;28;20131;-77
2022/12/03 09:00:19;;;;;;;24.85;14.98;;;3.80;99.90;;;;;;5092061;28;20044;-77
2022/12/03 09:02:48;;;;;;;24.38;15.18;;;3.70;99.90;;;;;;5088690;28;20074;-75
2022/12/03 09:05:32;;;;;;;26.65;16.13;;;3.70;99.90;;;;;;5091940;28;20040;-75
2022/12/03 09:07:58;;;;;;;26.27;16.00;;;3.70;99.90;;;;;;5098588;28;20035;-80
2022/12/03 09:10:23;;;;;;;25.60;16.57;;;3.70;99.90;;;;;;5098549;28;20496;-77
2022/12/03 09:12:49;;;;;;;25.77;16.70;;;3.70;99.90;;;;;;5093185;28;20506;-80
2022/12/03 09:15:15;;;;;;;25.97;15.97;;;3.70;99.90;;;;;;5107465;28;20047;-77
2022/12/03 09:17:41;;;;;;;27.52;16.50;;;3.70;99.90;;;;;;5117027;28;20108;-79
2022/12/03 09:20:07;;;;;;;25.67;16.90;;;3.70;99.90;;;;;;5117276;27;20047;-78
2022/12/03 09:22:33;;;;;;;23.92;15.07;;;3.70;99.90;;;;;;5116621;28;20040;-78
2022/12/03 09:25:00;;;;;;;26.83;15.67;;;3.70;99.90;;;;;;5116657;28;20047;-78
2022/12/03 09:27:26;;;;;;;25.92;15.82;;;3.70;99.90;;;;;;5118346;28;20044;-76
2022/12/03 09:29:51;;;;;;;24.90;14.90;;;3.70;99.90;;;;;;5099508;28;20372;-79
2022/12/03 09:32:17;;;;;;;27.90;16.20;;;3.70;99.90;;;;;;5117414;28;20044;-78
2022/12/03 09:34:43;;;;;;;24.77;15.20;;;3.80;99.90;;;;;;5116566;28;20380;-77
2022/12/03 09:37:08;;;;;;;25.13;16.27;;;3.70;99.90;;;;;;5116012;28;20047;-79
2022/12/03 09:39:34;;;;;;;26.27;16.10;;;3.70;99.90;;;;;;5117382;28;20040;-77
2022/12/03 09:42:01;;;;;;;25.73;15.13;;;3.70;99.90;;;;;;5117371;28;20104;-76
2022/12/03 09:44:32;;;;;;;26.15;16.85;;;3.60;99.90;;;;;;5116867;28;20134;-77
2022/12/03 09:46:59;;;;;;;24.98;15.13;;;3.70;99.90;;;;;;5116046;28;20044;-76
2022/12/03 09:49:26;;;;;;;28.40;16.83;;;3.70;99.90;;;;;;5117151;28;20083;-77
2022/12/03 09:51:55;;;;;;;27.10;15.88;;;3.70;99.90;;;;;;5117270;28;20044;-78
2022/12/03 09:54:25;;;;;;;26.95;17.17;;;3.70;99.90;;;;;;5115390;28;20058;-77
2022/12/03 09:56:52;;;;;;;24.27;15.07;;;3.70;99.90;;;;;;5116168;28;20126;-77
2022/12/03 09:59:19;;;;;;;26.67;16.17;;;3.60;99.90;;;;;;5115903;28;20055;-77
2022/12/03 10:01:45;;;;;;;29.77;16.33;;;3.60;99.90;;;;;;5116985;28;20044;-77
2022/12/03 10:04:11;;;;;;;24.07;15.67;;;3.70;99.90;;;;;;5115844;28;20058;-78
2022/12/03 10:06:37;;;;;;;23.87;15.07;;;3.70;99.90;;;;;;5116913;28;20043;-75
2022/12/03 10:09:05;;;;;;;26.58;16.08;;;3.70;99.90;;;;;;5116773;28;20051;-75
2022/12/03 10:11:31;;;;;;;29.50;17.35;;;3.60;99.90;;;;;;5116644;28;20048;-75
2022/12/03 10:13:57;;;;;;;27.33;16.92;;;3.70;99.90;;;;;;5115857;28;20074;-79
2022/12/03 10:16:24;;;;;;;28.53;17.23;;;3.70;99.90;;;;;;5116117;28;20491;-74
2022/12/03 10:18:53;;;;;;;27.35;16.35;;;3.60;99.90;;;;;;5116749;28;20035;-79
2022/12/03 10:21:30;;;;;;;25.73;15.40;;;3.60;99.90;;;;;;5116001;28;20483;-77
2022/12/03 10:24:33;;;;;;;26.52;17.15;;;3.70;99.90;;;;;;5116498;28;20047;-76
2022/12/03 10:27:03;;;;;;;29.50;16.85;;;3.60;99.90;;;;;;5115937;28;20059;-77
2022/12/03 10:29:32;;;;;;;30.13;17.73;;;3.60;99.90;;;;;;5116003;28;20099;-79
2022/12/03 10:32:05;;;;;;;32.33;18.35;;;3.60;99.90;;;;;;5098902;28;20048;-76
2022/12/03 10:34:41;;;;;;;26.67;16.88;;;3.60;99.90;;;;;;5095349;28;20524;-77
2022/12/03 10:37:12;;;;;;;27.30;16.85;;;3.60;99.90;;;;;;5095931;28;20052;-78
2022/12/03 10:39:58;;;;;;;27.88;16.55;;;3.60;99.90;;;;;;5094912;28;20052;-78
2022/12/03 10:42:30;;;;;;;27.47;16.73;;;3.60;99.90;;;;;;5094593;28;20100;-79
2022/12/03 10:45:18;;;;;;;28.50;18.98;;;3.70;99.90;;;;;;5094455;28;20131;-77
2022/12/03 10:48:03;;;;;;;32.13;19.38;;;3.70;99.90;;;;;;5095634;28;20098;-77
2022/12/03 10:50:29;;;;;;;26.73;17.08;;;3.70;99.90;;;;;;5094423;28;20048;-80
2022/12/03 10:52:55;;;;;;;28.37;17.43;;;3.50;99.90;;;;;;5095365;28;20056;-78
2022/12/03 10:55:20;;;;;;;29.83;17.73;;;3.60;99.90;;;;;;5095237;28;20083;-78
2022/12/03 10:57:47;;;;;;;29.67;16.50;;;3.60;99.90;;;;;;5094509;28;20044;-79
2022/12/03 11:00:19;;;;;;;30.55;17.85;;;3.50;99.90;;;;;;5093905;28;20403;-75
2022/12/03 11:02:47;;;;;;;29.80;17.27;;;3.50;99.90;;;;;;5094632;28;20492;-78
2022/12/03 11:05:15;;;;;;;28.45;17.90;;;3.50;99.90;;;;;;5094039;28;20117;-79
2022/12/03 11:07:42;;;;;;;27.63;17.05;;;3.50;99.90;;;;;;5095163;28;20056;-77
2022/12/03 11:10:14;;;;;;;28.63;17.17;;;3.50;99.90;;;;;;5077445;28;20505;-79
2022/12/03 11:12:41;;;;;;;30.98;18.10;;;3.50;99.90;;;;;;5077286;28;20036;-79
2022/12/03 11:15:14;;;;;;;27.42;17.65;;;3.50;99.90;;;;;;5093824;28;20050;-80
2022/12/03 11:17:40;;;;;;;27.90;17.05;;;3.50;99.90;;;;;;5095413;28;20126;-77
2022/12/03 11:20:23;;;;;;;27.90;17.90;;;3.60;99.90;;;;;;5087982;28;20170;-77
2022/12/03 11:22:57;;;;;;;25.40;15.57;;;3.60;99.90;;;;;;5092120;28;20399;-79
2022/12/03 11:25:25;;;;;;;28.80;17.23;;;3.70;99.90;;;;;;5092740;28;20062;-80
2022/12/03 11:28:10;;;;;;;26.15;16.80;;;3.70;99.90;;;;;;5076059;28;20488;-78
2022/12/03 11:30:48;;;;;;;29.92;18.50;;;3.60;99.90;;;;;;5093212;28;20056;-81
2022/12/03 11:33:30;;;;;;;25.52;16.23;;;3.50;99.90;;;;;;5092257;28;20048;-84
2022/12/03 11:36:04;;;;;;;28.50;17.20;;;3.50;99.90;;;;;;5092077;28;20044;-82
2022/12/03 11:38:36;;;;;;;26.00;17.65;;;3.50;99.90;;;;;;5092686;28;20052;-82
2022/12/03 11:41:27;;;;;;;27.40;16.55;;;3.50;99.90;;;;;;5084650;28;20056;-83
2022/12/03 11:43:56;;;;;;;27.67;16.30;;;3.50;99.90;;;;;;5093392;28;20114;-86
2022/12/03 11:46:23;;;;;;;28.40;16.88;;;3.50;99.90;;;;;;5093354;28;20055;-81
2022/12/03 11:48:51;;;;;;;28.85;18.08;;;3.50;99.90;;;;;;5094505;28;20054;-79
2022/12/03 11:51:20;;;;;;;30.20;17.05;;;3.40;99.90;;;;;;5094058;28;20422;-82
2022/12/03 11:53:46;;;;;;;26.55;16.45;;;3.40;99.90;;;;;;5094552;28;20480;-77
2022/12/03 11:56:18;;;;;;;27.15;16.23;;;3.40;99.90;;;;;;5094309;28;20055;-76
2022/12/03 11:58:46;;;;;;;27.25;16.40;;;3.50;99.90;;;;;;5094534;28;20112;-75
2022/12/03 12:01:13;;;;;;;28.45;16.77;;;3.40;99.90;;;;;;5094159;28;20503;-76
2022/12/03 12:03:46;;;;;;;30.35;18.83;;;3.40;99.90;;;;;;5092929;28;20074;-75
2022/12/03 12:06:17;;;;;;;29.80;17.90;;;3.50;99.90;;;;;;5094411;28;20056;-75
2022/12/03 12:08:58;;;;;;;32.20;20.02;;;3.50;99.90;;;;;;5094422;28;20044;-76
2022/12/03 12:11:29;;;;;;;28.88;17.85;;;3.40;99.90;;;;;;5092521;28;20044;-75
2022/12/03 12:14:03;;;;;;;28.85;17.27;;;3.40;99.90;;;;;;5093907;28;20048;-77
2022/12/03 12:16:51;;;;;;;26.95;17.38;;;3.30;99.90;;;;;;5093557;28;20104;-74
2022/12/03 12:19:37;;;;;;;29.58;18.05;;;3.40;99.90;;;;;;5094056;28;20087;-75
2022/12/03 12:22:17;;;;;;;29.20;16.75;;;3.40;99.90;;;;;;5093873;28;20119;-74
2022/12/03 12:24:47;;;;;;;29.13;17.33;;;3.40;99.90;;;;;;5092355;28;20047;-75
2022/12/03 12:27:20;;;;;;;25.88;16.70;;;3.40;99.90;;;;;;5092750;28;20097;-74
2022/12/03 12:29:55;;;;;;;28.90;17.63;;;3.40;99.90;;;;;;5093770;28;20048;-74
2022/12/03 12:32:42;;;;;;;28.17;17.83;;;3.40;99.90;;;;;;5090074;28;20838;-78
2022/12/03 12:35:25;;;;;;;29.00;18.30;;;3.40;99.90;;;;;;5089747;28;20078;-75
2022/12/03 12:37:52;;;;;;;35.53;19.75;;;3.40;99.90;;;;;;5092542;28;20132;-75
2022/12/03 12:40:22;;;;;;;29.33;18.85;;;3.40;99.90;;;;;;5091134;28;20145;-74
2022/12/03 12:42:52;;;;;;;31.88;17.60;;;3.40;99.90;;;;;;5090855;28;20054;-74
2022/12/03 12:45:23;;;;;;;29.77;18.13;;;3.40;99.90;;;;;;5092519;28;20040;-76
2022/12/03 12:48:00;;;;;;;30.08;18.60;;;3.40;99.90;;;;;;5091030;28;20105;-75
2022/12/03 12:50:26;;;;;;;31.58;18.20;;;3.40;99.90;;;;;;5091298;28;20499;-76
2022/12/03 12:52:56;;;;;;;29.83;18.17;;;3.50;99.90;;;;;;5090351;28;20058;-74
2022/12/03 12:55:22;;;;;;;28.10;17.58;;;3.50;99.90;;;;;;5091099;28;20562;-79
2022/12/03 12:57:48;;;;;;;30.83;18.60;;;3.40;99.90;;;;;;5091383;28;20042;-74
2022/12/03 13:00:17;;;;;;;30.05;18.25;;;3.50;99.90;;;;;;5091620;28;20040;-75
2022/12/03 13:03:04;;;;;;;30.90;18.65;;;3.40;99.90;;;;;;5081818;28;20109;-71
2022/12/03 13:05:41;;;;;;;29.13;18.10;;;3.50;99.90;;;;;;5091359;28;20468;-77
2022/12/03 13:08:30;;;;;;;31.75;19.45;;;3.40;99.90;;;;;;5092885;28;20399;-76
2022/12/03 13:10:58;;;;;;;27.23;16.67;;;3.40;99.90;;;;;;5096262;28;20043;-76